Time;durP1;ratioP1;P1;durP2;ratioP2;P2;SDS_P1;SDS_P2;PMS_P1;PMS_P2;Temp;Humidity;BMP_temperature;BMP_pressure;BME280_temperature;BME280_humidity;BME280_pressure;Samples;Min_cycle;Max_cycle;Signal;HPM_P1;HPM_P2
2024/02/08 00:02:43;;;;;;;10.80;5.20;;;;;;;2.84;83.91;99241.83;129628;1278;114737;-65
2024/02/08 00:05:45;;;;;;;10.10;5.90;;;;;;;2.83;83.87;99240.80;129470;1260;115731;-63
2024/02/08 00:08:49;;;;;;;10.70;4.90;;;;;;;2.83;83.93;99237.80;129396;1272;128195;-65
2024/02/08 00:11:51;;;;;;;10.20;4.40;;;;;;;2.82;83.99;99238.53;129703;1262;114907;-63
2024/02/08 00:14:53;;;;;;;8.80;5.30;;;;;;;2.81;83.98;99234.33;130042;1278;114786;-65
2024/02/08 00:17:56;;;;;;;10.40;4.40;;;;;;;2.81;83.99;99228.88;129829;1260;114735;-61
2024/02/08 00:20:58;;;;;;;11.40;5.00;;;;;;;2.80;84.02;99231.22;129945;1258;114689;-61
2024/02/08 00:24:01;;;;;;;11.00;3.80;;;;;;;2.79;83.72;99235.48;129793;1268;114724;-63
2024/02/08 00:27:04;;;;;;;9.50;4.30;;;;;;;2.77;83.88;99236.60;129688;1278;114782;-62
2024/02/08 00:30:06;;;;;;;8.40;4.20;;;;;;;2.77;83.92;99241.02;129739;1259;114730;-61
2024/02/08 00:33:09;;;;;;;9.40;3.90;;;;;;;2.78;84.01;99237.12;129459;1278;114820;-62
2024/02/08 00:36:11;;;;;;;10.30;5.40;;;;;;;2.75;83.91;99235.42;129815;1278;114709;-63
2024/02/08 00:39:13;;;;;;;11.40;4.80;;;;;;;2.75;84.06;99235.63;129715;1275;114813;-64
2024/02/08 00:42:15;;;;;;;10.30;5.10;;;;;;;2.74;84.13;99235.46;129643;1267;114868;-64
2024/02/08 00:45:22;;;;;;;10.70;4.60;;;;;;;2.73;84.09;99233.56;129906;1259;115322;-62
2024/02/08 00:48:24;;;;;;;11.40;4.50;;;;;;;2.72;84.19;99232.89;129575;1278;128659;-61
2024/02/08 00:51:27;;;;;;;11.80;4.90;;;;;;;2.72;84.14;99237.85;130027;1259;116409;-62
2024/02/08 00:54:29;;;;;;;11.10;4.60;;;;;;;2.70;84.07;99236.13;129686;1260;114780;-61
2024/02/08 00:57:32;;;;;;;11.40;4.90;;;;;;;2.69;84.11;99242.16;129746;1259;115135;-61
2024/02/08 01:00:37;;;;;;;11.30;6.20;;;;;;;2.68;84.27;99241.67;129798;1260;114718;-61
2024/02/08 01:03:39;;;;;;;12.50;6.00;;;;;;;2.66;84.06;99243.84;129627;1278;114935;-63
2024/02/08 01:06:42;;;;;;;10.80;5.30;;;;;;;2.65;84.30;99236.16;129788;1278;114969;-64
2024/02/08 01:09:44;;;;;;;13.50;5.60;;;;;;;2.65;84.07;99234.75;129810;1269;115389;-61
2024/02/08 01:12:46;;;;;;;9.80;5.10;;;;;;;2.64;84.26;99227.19;129641;1264;114909;-64
2024/02/08 01:15:49;;;;;;;12.40;5.70;;;;;;;2.63;84.34;99222.47;129717;1270;115123;-62
2024/02/08 01:18:52;;;;;;;12.40;6.40;;;;;;;2.63;84.49;99216.48;129814;1259;114721;-62
2024/02/08 01:21:57;;;;;;;13.50;6.90;;;;;;;2.62;84.63;99213.15;129785;1278;115176;-61
2024/02/08 01:24:59;;;;;;;14.10;6.20;;;;;;;2.63;84.50;99210.84;129738;1259;128689;-65
2024/02/08 01:28:01;;;;;;;14.60;6.40;;;;;;;2.62;84.67;99214.36;129583;1259;214941;-62
2024/02/08 01:31:04;;;;;;;15.70;8.50;;;;;;;2.63;84.61;99220.17;129761;1269;114711;-62
2024/02/08 01:34:07;;;;;;;10.60;5.70;;;;;;;2.63;84.46;99219.47;129719;1268;114795;-61
2024/02/08 01:37:10;;;;;;;12.60;5.70;;;;;;;2.62;84.52;99222.12;129897;1259;115394;-64
2024/02/08 01:40:16;;;;;;;11.90;5.50;;;;;;;2.62;84.69;99221.79;129903;1259;114680;-60
2024/02/08 01:43:18;;;;;;;11.10;6.20;;;;;;;2.62;84.71;99225.13;129571;1278;128256;-61
2024/02/08 01:46:20;;;;;;;10.90;6.60;;;;;;;2.61;84.54;99223.94;129646;1258;114763;-60
2024/02/08 01:49:27;;;;;;;11.50;6.40;;;;;;;2.59;84.58;99220.65;129641;1266;114818;-62
2024/02/08 01:52:29;;;;;;;10.40;6.90;;;;;;;2.57;84.62;99213.31;129536;1257;114784;-62
2024/02/08 01:55:33;;;;;;;12.80;5.20;;;;;;;2.55;84.57;99215.50;129741;1260;114743;-65
2024/02/08 01:58:35;;;;;;;10.40;5.70;;;;;;;2.53;84.58;99210.81;129858;1260;114795;-61
2024/02/08 02:01:45;;;;;;;11.20;6.80;;;;;;;2.50;84.50;99215.33;129808;1268;115411;-65
2024/02/08 02:04:48;;;;;;;12.30;5.20;;;;;;;2.46;84.50;99218.63;129620;1264;114654;-62
2024/02/08 02:07:50;;;;;;;13.00;5.90;;;;;;;2.41;84.43;99217.71;129856;1260;114808;-64
2024/02/08 02:11:11;;;;;;;11.70;6.00;;;;;;;2.36;84.40;99213.48;129816;1267;114750;-63
2024/02/08 02:14:15;;;;;;;13.70;6.50;;;;;;;2.31;84.40;99212.06;129614;1258;114920;-64
2024/02/08 02:17:25;;;;;;;9.00;5.50;;;;;;;2.24;84.22;99207.71;129821;1259;114734;-61
2024/02/08 02:20:29;;;;;;;10.10;5.00;;;;;;;2.18;84.27;99202.81;129768;1278;129880;-61
2024/02/08 02:23:32;;;;;;;9.80;4.90;;;;;;;2.10;84.12;99203.58;129583;1278;114795;-61
2024/02/08 02:26:35;;;;;;;10.50;5.20;;;;;;;2.04;84.06;99199.23;129833;1260;114731;-63
2024/02/08 02:29:38;;;;;;;7.30;4.90;;;;;;;1.97;84.15;99201.73;130081;1260;114812;-61
2024/02/08 02:32:41;;;;;;;14.40;5.80;;;;;;;1.90;83.98;99198.25;129860;1258;115325;-61
2024/02/08 02:35:48;;;;;;;7.80;4.60;;;;;;;1.85;84.09;99197.70;129926;1261;114718;-61
2024/02/08 02:38:51;;;;;;;11.30;4.20;;;;;;;1.80;84.13;99203.83;129623;1260;116353;-62
2024/02/08 02:41:53;;;;;;;9.60;4.60;;;;;;;1.76;84.39;99201.84;129719;1264;114874;-61
2024/02/08 02:44:55;;;;;;;8.80;4.50;;;;;;;1.73;84.34;99204.25;129841;1267;115108;-60
2024/02/08 02:47:58;;;;;;;8.80;3.90;;;;;;;1.69;84.35;99199.41;129992;1257;114690;-61
2024/02/08 02:51:01;;;;;;;11.60;3.80;;;;;;;1.66;84.58;99198.27;129581;1262;114747;-63
2024/02/08 02:54:03;;;;;;;8.60;3.80;;;;;;;1.64;84.36;99199.24;129885;1260;114810;-61
2024/02/08 02:57:05;;;;;;;7.10;3.70;;;;;;;1.61;84.52;99195.64;129764;1258;114693;-63
2024/02/08 03:00:21;;;;;;;8.80;3.70;;;;;;;1.57;84.42;99196.62;129916;1255;114636;-61
2024/02/08 03:03:23;;;;;;;8.60;3.70;;;;;;;1.53;84.43;99194.11;129605;1258;114824;-61
2024/02/08 03:06:26;;;;;;;9.30;3.60;;;;;;;1.49;84.73;99193.69;129914;1266;114799;-62
2024/02/08 03:09:30;;;;;;;8.40;4.50;;;;;;;1.45;84.58;99196.10;129933;1268;115298;-64
2024/02/08 03:12:32;;;;;;;8.80;3.90;;;;;;;1.42;84.77;99195.52;129785;1261;114811;-62
2024/02/08 03:15:36;;;;;;;7.10;4.20;;;;;;;1.36;84.30;99193.39;129989;1260;114706;-62
2024/02/08 03:18:43;;;;;;;8.30;4.80;;;;;;;1.30;84.52;99184.78;129951;1260;114721;-64
2024/02/08 03:21:45;;;;;;;9.00;4.90;;;;;;;1.25;84.76;99181.40;129877;1268;114799;-61
2024/02/08 03:24:47;;;;;;;7.80;4.00;;;;;;;1.19;84.69;99179.45;129892;1271;114935;-61
2024/02/08 03:27:51;;;;;;;8.30;4.40;;;;;;;1.14;84.45;99180.65;129858;1258;117570;-61
2024/02/08 03:30:55;;;;;;;7.40;4.00;;;;;;;1.09;84.68;99182.20;129740;1257;127893;-61
2024/02/08 03:33:57;;;;;;;12.80;5.20;;;;;;;1.04;84.62;99182.70;129795;1278;114783;-61
2024/02/08 03:36:59;;;;;;;12.10;5.10;;;;;;;0.99;84.49;99177.05;129991;1278;114684;-64
2024/02/08 03:40:03;;;;;;;13.60;4.70;;;;;;;0.93;84.35;99178.78;129951;1260;114727;-61
2024/02/08 03:43:05;;;;;;;10.10;5.80;;;;;;;0.87;84.27;99176.31;130053;1257;114712;-58
2024/02/08 03:46:07;;;;;;;10.50;5.50;;;;;;;0.82;84.65;99174.02;129958;1260;114747;-64
2024/02/08 03:49:10;;;;;;;8.20;4.80;;;;;;;0.75;84.59;99175.95;129858;1261;114712;-65
2024/02/08 03:52:12;;;;;;;17.60;6.70;;;;;;;0.69;84.72;99184.37;129942;1278;127840;-61
2024/02/08 03:55:16;;;;;;;11.70;5.90;;;;;;;0.63;84.27;99183.31;129803;1268;115250;-62
2024/02/08 03:58:23;;;;;;;11.70;4.70;;;;;;;0.57;84.20;99182.06;130034;1256;114798;-62
2024/02/08 04:01:25;;;;;;;11.10;5.60;;;;;;;0.53;84.69;99186.92;129885;1272;114904;-62
2024/02/08 04:04:34;;;;;;;8.40;4.90;;;;;;;0.49;84.53;99187.04;129777;1271;114893;-65
2024/02/08 04:07:56;;;;;;;11.90;6.00;;;;;;;0.44;84.55;99182.39;130019;1261;128883;-61
2024/02/08 04:54:11;;;;;;;23.50;10.80;;;;;;;0.49;86.20;99166.99;129637;1259;114708;-60
2024/02/08 04:57:13;;;;;;;21.40;11.10;;;;;;;0.51;86.46;99168.89;129939;1257;114737;-63
2024/02/08 05:00:19;;;;;;;21.50;11.90;;;;;;;0.50;86.04;99164.34;129998;1260;115477;-61
2024/02/08 05:03:22;;;;;;;21.80;12.80;;;;;;;0.50;86.21;99161.88;130017;1260;114713;-61
2024/02/08 05:06:25;;;;;;;19.50;10.80;;;;;;;0.50;86.16;99158.74;129694;1256;114858;-61
2024/02/08 05:09:27;;;;;;;18.60;11.10;;;;;;;0.49;86.37;99164.20;129864;1260;114709;-62
2024/02/08 05:12:30;;;;;;;21.10;10.20;;;;;;;0.49;86.57;99162.27;129812;1257;114769;-61
2024/02/08 05:15:32;;;;;;;20.50;9.60;;;;;;;0.51;86.43;99161.31;130065;1258;114811;-61
2024/02/08 05:18:36;;;;;;;17.90;9.00;;;;;;;0.52;86.49;99161.81;129714;1278;128514;-60
2024/02/08 05:21:40;;;;;;;17.00;9.90;;;;;;;0.54;86.54;99163.52;129674;1278;114718;-61
2024/02/08 05:24:43;;;;;;;21.70;9.00;;;;;;;0.55;86.80;99164.89;129640;1260;114889;-61
2024/02/08 05:27:45;;;;;;;19.20;9.60;;;;;;;0.58;86.97;99161.84;130018;1267;114776;-61
2024/02/08 05:30:49;;;;;;;16.10;9.10;;;;;;;0.60;86.86;99164.23;130044;1267;114885;-61
2024/02/08 05:33:54;;;;;;;21.60;9.70;;;;;;;0.60;86.66;99161.59;130002;1266;114653;-61
2024/02/08 05:36:56;;;;;;;22.00;10.10;;;;;;;0.62;86.72;99164.89;129735;1278;114988;-61
2024/02/08 05:40:00;;;;;;;17.70;10.10;;;;;;;0.63;86.96;99158.20;129926;1259;114797;-61
2024/02/08 05:43:03;;;;;;;18.90;10.80;;;;;;;0.63;87.12;99155.56;129878;1255;114757;-60
2024/02/08 05:46:06;;;;;;;20.20;10.90;;;;;;;0.63;86.92;99154.15;129954;1258;115183;-61
2024/02/08 05:49:14;;;;;;;22.70;10.40;;;;;;;0.63;86.94;99160.83;129936;1259;114781;-61
2024/02/08 05:52:16;;;;;;;18.90;9.70;;;;;;;0.63;87.03;99169.62;129915;1278;115170;-60
2024/02/08 05:55:19;;;;;;;18.00;9.20;;;;;;;0.63;87.05;99169.95;129854;1275;114814;-59
2024/02/08 05:58:21;;;;;;;17.00;9.70;;;;;;;0.65;87.31;99173.95;129894;1259;114732;-61
2024/02/08 06:01:24;;;;;;;27.20;12.40;;;;;;;0.66;87.04;99176.40;129925;1257;114728;-61
2024/02/08 06:04:34;;;;;;;27.20;11.10;;;;;;;0.66;87.12;99176.03;129843;1267;114715;-61
2024/02/08 06:07:36;;;;;;;34.90;14.60;;;;;;;0.65;87.18;99181.14;129863;1258;128941;-61
2024/02/08 06:10:52;;;;;;;46.10;16.50;;;;;;;0.66;87.30;99178.84;129895;1261;116443;-66
2024/02/08 06:14:00;;;;;;;46.30;15.80;;;;;;;0.66;87.28;99179.72;129800;1255;114898;-61
2024/02/08 06:17:06;;;;;;;54.10;18.80;;;;;;;0.68;87.21;99181.42;129998;1261;114908;-61
2024/02/08 06:20:09;;;;;;;48.80;16.50;;;;;;;0.69;87.32;99184.90;129647;1259;114848;-61
2024/02/08 06:23:22;;;;;;;47.80;18.10;;;;;;;0.70;87.64;99187.33;129822;1256;115581;-60
2024/02/08 06:26:28;;;;;;;35.80;14.10;;;;;;;0.72;87.68;99183.08;129609;1270;114956;-60
2024/02/08 06:29:46;;;;;;;46.50;14.70;;;;;;;0.73;87.77;99185.67;129667;1260;114904;-61
2024/02/08 06:32:57;;;;;;;21.30;10.80;;;;;;;0.74;87.96;99185.10;129902;1259;114826;-65
2024/02/08 06:35:59;;;;;;;25.70;10.90;;;;;;;0.77;87.95;99191.18;129985;1278;114728;-63
2024/02/08 06:39:20;;;;;;;22.90;12.10;;;;;;;0.79;87.80;99191.13;129961;1266;114731;-63
2024/02/08 06:42:40;;;;;;;23.80;11.60;;;;;;;0.83;87.71;99184.72;129725;1260;114873;-66
2024/02/08 06:46:09;;;;;;;20.20;10.00;;;;;;;0.86;88.05;99184.25;129856;1259;114765;-66
2024/02/08 07:39:34;;;;;;;12.20;4.70;;;;;;;1.91;88.36;99177.43;129916;1259;115422;-63
2024/02/08 07:42:41;;;;;;;22.10;9.10;;;;;;;1.98;87.80;99167.00;129749;1262;114895;-63
2024/02/08 07:45:46;;;;;;;16.40;8.10;;;;;;;2.05;87.64;99166.08;130026;1259;128775;-62
2024/02/08 07:48:58;;;;;;;10.60;6.00;;;;;;;2.12;87.44;99159.70;129718;1272;114736;-61
2024/02/08 07:52:00;;;;;;;16.80;9.30;;;;;;;2.18;87.34;99144.84;129622;1263;114850;-61
2024/02/08 07:55:15;;;;;;;17.80;6.40;;;;;;;2.23;87.23;99138.70;129954;1278;115293;-66
2024/02/08 07:58:18;;;;;;;17.50;8.30;;;;;;;2.26;87.12;99127.49;129592;1255;114801;-64
2024/02/08 08:01:20;;;;;;;18.90;7.90;;;;;;;2.30;87.01;99125.78;129988;1278;128894;-62
2024/02/08 08:04:56;;;;;;;18.80;9.50;;;;;;;2.35;87.10;99127.20;129820;1275;114719;-63
2024/02/08 08:07:59;;;;;;;18.60;9.30;;;;;;;2.45;87.17;99114.67;129488;1262;114937;-62
2024/02/08 08:11:05;;;;;;;12.10;6.80;;;;;;;2.56;87.01;99106.55;129582;1263;116231;-65
2024/02/08 08:14:09;;;;;;;15.50;7.10;;;;;;;2.61;86.65;99108.46;129621;1261;114787;-61
2024/02/08 08:23:59;;;;;;;19.20;8.70;;;;;;;2.73;86.03;99097.98;129535;1263;114852;-65
2024/02/08 08:27:06;;;;;;;12.70;7.20;;;;;;;2.78;85.79;99103.63;129570;1258;115179;-65
2024/02/08 08:30:09;;;;;;;11.20;5.20;;;;;;;2.79;85.55;99099.54;129717;1262;114630;-62
2024/02/08 08:33:28;;;;;;;14.50;7.60;;;;;;;2.82;85.58;99098.54;129665;1260;114777;-64
2024/02/08 08:36:34;;;;;;;14.60;7.90;;;;;;;2.90;85.85;99098.59;129647;1256;115291;-62
2024/02/08 08:42:57;;;;;;;14.10;6.20;;;;;;;3.16;85.72;99108.38;129665;1257;114792;-65
2024/02/08 08:46:00;;;;;;;12.80;6.10;;;;;;;3.31;85.72;99096.86;129641;1261;114735;-62
2024/02/08 08:49:03;;;;;;;14.50;7.50;;;;;;;3.47;85.45;99098.16;129612;1261;114722;-62
2024/02/08 08:52:06;;;;;;;16.40;7.30;;;;;;;3.60;85.13;99101.54;129674;1260;114718;-63
2024/02/08 08:55:17;;;;;;;15.80;7.40;;;;;;;3.72;85.00;99104.58;129720;1260;115373;-62
2024/02/08 08:58:22;;;;;;;16.70;7.90;;;;;;;3.85;84.99;99096.98;129594;1262;116431;-62
2024/02/08 09:01:24;;;;;;;16.00;7.50;;;;;;;4.03;84.78;99098.19;129724;1271;114635;-62
2024/02/08 09:04:32;;;;;;;26.50;14.40;;;;;;;4.22;84.53;99097.22;129999;1270;115395;-63
2024/02/08 09:07:37;;;;;;;17.80;8.80;;;;;;;4.39;84.35;99098.80;129537;1257;114867;-60
2024/02/08 09:10:40;;;;;;;12.90;5.70;;;;;;;4.57;83.75;99096.95;129739;1260;114793;-63
2024/02/08 09:13:42;;;;;;;10.70;5.00;;;;;;;4.71;83.55;99101.25;129985;1258;114794;-61
2024/02/08 09:16:52;;;;;;;11.50;6.00;;;;;;;4.87;83.04;99106.04;129960;1260;114797;-62
2024/02/08 09:19:59;;;;;;;10.50;5.80;;;;;;;5.03;82.53;99110.78;129839;1261;127428;-62
2024/02/08 09:23:12;;;;;;;14.90;6.20;;;;;;;5.17;81.83;99111.06;129575;1257;114872;-61
2024/02/08 09:26:15;;;;;;;16.80;8.40;;;;;;;5.33;81.83;99112.61;129609;1262;114827;-60
2024/02/08 09:29:23;;;;;;;12.30;5.70;;;;;;;5.51;81.78;99105.89;129779;1278;114891;-60
2024/02/08 09:32:44;;;;;;;10.20;5.20;;;;;;;5.67;81.15;99089.94;129686;1256;114843;-61
2024/02/08 09:35:47;;;;;;;32.20;16.80;;;;;;;5.85;81.40;99092.92;129779;1278;129034;-64
2024/02/08 09:38:50;;;;;;;12.20;6.40;;;;;;;6.04;81.56;99099.80;129859;1259;114759;-63
2024/02/08 09:41:53;;;;;;;9.70;4.80;;;;;;;6.14;79.88;99090.98;129909;1256;114730;-61
2024/02/08 09:45:18;;;;;;;14.80;6.20;;;;;;;6.18;79.75;99094.55;129901;1257;114775;-60
2024/02/08 09:48:26;;;;;;;15.50;8.20;;;;;;;6.26;79.77;99091.61;129547;1264;114769;-60
2024/02/08 09:51:35;;;;;;;22.00;12.10;;;;;;;6.37;79.37;99083.41;129620;1274;128647;-60
2024/02/08 09:54:37;;;;;;;11.90;5.50;;;;;;;6.45;79.08;99078.58;129597;1278;114835;-63
2024/02/08 09:57:46;;;;;;;12.50;5.70;;;;;;;6.47;77.79;99074.42;129830;1259;114734;-61
2024/02/08 10:00:57;;;;;;;14.00;5.60;;;;;;;6.42;77.59;99072.52;129636;1261;115084;-63
2024/02/08 10:04:07;;;;;;;13.50;5.00;;;;;;;6.40;76.97;99076.54;129648;1259;114819;-64
2024/02/08 10:07:16;;;;;;;16.70;9.90;;;;;;;6.36;77.03;99076.91;129524;1262;128420;-61
2024/02/08 10:10:21;;;;;;;11.60;5.50;;;;;;;6.43;77.46;99078.48;129845;1278;114682;-61
2024/02/08 10:13:30;;;;;;;10.60;5.10;;;;;;;6.52;77.04;99065.80;129621;1257;114892;-61
2024/02/08 10:16:47;;;;;;;13.60;4.70;;;;;;;6.57;76.56;99060.08;129817;1278;114809;-62
2024/02/08 10:23:34;;;;;;;15.30;5.80;;;;;;;6.81;76.23;99042.44;129630;1278;128723;-63
2024/02/08 10:26:39;;;;;;;12.10;7.40;;;;;;;6.90;74.97;99042.66;129741;1275;114750;-61
2024/02/08 10:29:43;;;;;;;11.20;4.70;;;;;;;6.87;73.93;99034.48;129600;1257;115278;-65
2024/02/08 10:32:52;;;;;;;11.60;5.00;;;;;;;6.85;74.16;99028.36;129631;1257;115135;-62
2024/02/08 10:36:18;;;;;;;13.20;4.70;;;;;;;6.92;74.58;99017.20;129672;1259;114753;-61
2024/02/08 10:39:24;;;;;;;8.40;4.30;;;;;;;6.97;73.76;99014.02;129812;1259;129327;-61
2024/02/08 10:42:29;;;;;;;14.90;6.60;;;;;;;7.02;74.34;99012.20;129764;1270;114744;-62
2024/02/08 10:45:43;;;;;;;3.50;2.30;;;;;;;7.08;74.24;99009.73;129811;1255;115089;-60
2024/02/08 10:48:49;;;;;;;10.80;4.40;;;;;;;7.10;73.42;99007.16;129566;1259;114793;-61
2024/02/08 10:51:59;;;;;;;8.00;3.40;;;;;;;7.11;73.20;98999.09;129455;1256;114693;-61
2024/02/08 10:55:18;;;;;;;12.80;4.80;;;;;;;7.12;72.76;98989.98;129712;1275;128960;-64
2024/02/08 10:58:47;;;;;;;12.70;5.50;;;;;;;7.11;72.63;98986.30;129519;1275;114930;-61
2024/02/08 11:05:12;;;;;;;12.10;6.50;;;;;;;7.17;72.26;98972.48;129888;1257;115089;-61
2024/02/08 11:08:24;;;;;;;6.60;4.40;;;;;;;7.20;72.63;98971.23;129955;1259;115090;-61
2024/02/08 11:11:26;;;;;;;13.80;5.10;;;;;;;7.25;72.29;98984.61;129682;1256;128504;-65
2024/02/08 11:14:34;;;;;;;11.10;4.10;;;;;;;7.31;72.37;98991.77;129496;1259;115441;-62
2024/02/08 11:17:37;;;;;;;11.20;4.80;;;;;;;7.27;70.79;98984.67;129618;1262;114690;-64
2024/02/08 11:20:42;;;;;;;20.70;11.90;;;;;;;7.23;71.68;98985.30;129880;1255;115190;-65
2024/02/08 11:23:53;;;;;;;14.00;5.50;;;;;;;7.28;71.75;98978.63;129567;1270;115166;-63
2024/02/08 11:26:57;;;;;;;10.10;4.30;;;;;;;7.30;71.65;98974.23;129715;1270;128914;-62
2024/02/08 11:29:59;;;;;;;11.30;4.30;;;;;;;7.30;71.10;98963.90;129840;1257;114718;-62
2024/02/08 11:33:03;;;;;;;11.40;5.90;;;;;;;7.31;70.71;98958.73;129577;1259;116095;-64
2024/02/08 11:36:22;;;;;;;9.80;4.40;;;;;;;7.26;70.17;98959.35;129911;1256;115620;-62
2024/02/08 11:39:27;;;;;;;;;;;;;;;7.22;70.57;98957.45;129732;1256;114795;-62
2024/02/08 11:42:35;;;;;;;10.70;4.90;;;;;;;7.25;70.52;98953.93;129706;1259;129014;-62
2024/02/08 11:45:38;;;;;;;19.60;10.30;;;;;;;7.27;70.50;98955.70;129719;1258;114732;-62
2024/02/08 11:48:41;;;;;;;10.10;5.40;;;;;;;7.29;70.37;98954.36;129655;1260;114878;-64
2024/02/08 11:51:48;;;;;;;8.70;3.90;;;;;;;7.24;69.76;98956.07;129696;1256;114782;-63
2024/02/08 11:55:13;;;;;;;13.00;6.70;;;;;;;7.18;69.54;98955.52;129855;1260;115188;-61
2024/02/08 11:58:16;;;;;;;11.70;5.50;;;;;;;7.17;69.90;98952.26;129746;1275;128999;-61
2024/02/08 12:01:25;;;;;;;10.60;5.20;;;;;;;7.19;69.66;98955.87;129917;1256;114798;-63
2024/02/08 12:04:28;;;;;;;10.30;4.30;;;;;;;7.18;69.66;98954.15;129911;1270;114722;-63
2024/02/08 12:07:31;;;;;;;9.80;4.30;;;;;;;7.22;69.98;98953.55;129843;1259;114718;-63
2024/02/08 12:10:35;;;;;;;11.80;5.60;;;;;;;7.26;69.96;98957.21;129867;1259;115234;-62
2024/02/08 12:13:45;;;;;;;16.60;9.20;;;;;;;7.29;69.57;98960.73;129656;1267;127881;-62
2024/02/08 12:16:47;;;;;;;12.10;5.10;;;;;;;7.32;69.80;98959.03;129698;1254;116580;-63
2024/02/08 12:19:59;;;;;;;7.90;4.20;;;;;;;7.36;70.06;98954.32;129873;1259;114783;-62
2024/02/08 12:23:02;;;;;;;11.50;5.20;;;;;;;7.45;70.18;98950.45;129809;1257;115158;-64
2024/02/08 12:26:06;;;;;;;14.50;8.00;;;;;;;7.47;69.88;98936.33;129916;1256;114732;-61
2024/02/08 12:29:16;;;;;;;14.40;6.90;;;;;;;7.53;70.19;98931.69;130017;1259;127679;-64
2024/02/08 12:32:18;;;;;;;14.80;6.80;;;;;;;7.60;69.97;98928.60;130055;1278;114982;-63
2024/02/08 12:35:21;;;;;;;22.60;12.40;;;;;;;7.63;69.88;98930.36;129639;1262;115164;-65
2024/02/08 12:38:24;;;;;;;10.70;6.20;;;;;;;7.63;69.23;98923.14;129833;1257;115148;-63
2024/02/08 12:41:38;;;;;;;8.20;3.50;;;;;;;7.58;69.14;98912.88;129877;1259;114714;-63
2024/02/08 12:44:40;;;;;;;8.20;3.90;;;;;;;7.52;68.58;98906.68;129629;1276;129032;-63
2024/02/08 12:47:49;;;;;;;10.50;3.50;;;;;;;7.41;68.07;98903.60;129875;1267;115164;-64
2024/02/08 12:50:53;;;;;;;8.30;3.60;;;;;;;7.28;68.19;98901.90;129778;1278;114753;-62
2024/02/08 12:54:02;;;;;;;9.80;4.30;;;;;;;7.23;68.40;98896.48;129759;1278;115425;-62
2024/02/08 12:57:08;;;;;;;11.90;6.50;;;;;;;7.26;68.28;98889.58;129508;1278;114786;-62
2024/02/08 13:00:13;;;;;;;9.90;4.10;;;;;;;7.28;68.51;98882.20;129763;1278;128382;-62
2024/02/08 13:03:16;;;;;;;;;;;;;;;7.31;68.89;98876.84;130034;1257;114789;-62
2024/02/08 13:06:18;;;;;;;7.90;4.50;;;;;;;7.32;68.82;98872.34;129831;1259;115253;-61
2024/02/08 13:09:26;;;;;;;8.00;4.50;;;;;;;7.34;68.20;98869.77;129725;1259;115154;-62
2024/02/08 13:12:29;;;;;;;14.40;4.10;;;;;;;7.31;68.24;98872.60;129817;1257;115078;-62
2024/02/08 13:15:34;;;;;;;13.30;7.70;;;;;;;7.31;68.50;98870.80;129758;1259;115077;-63
2024/02/08 13:18:39;;;;;;;16.60;8.70;;;;;;;7.38;68.85;98867.17;129606;1278;128565;-62
2024/02/08 13:21:43;;;;;;;9.20;6.10;;;;;;;7.44;68.88;98863.42;129856;1278;114725;-62
2024/02/08 13:24:45;;;;;;;7.80;5.10;;;;;;;7.45;67.90;98863.73;129538;1278;114928;-65
2024/02/08 13:27:50;;;;;;;10.80;5.10;;;;;;;7.46;68.46;98870.26;129736;1278;275576;-65
2024/02/08 13:30:57;;;;;;;10.80;4.90;;;;;;;7.46;68.45;98864.41;129738;1259;114937;-63
2024/02/08 13:34:01;;;;;;;7.90;3.60;;;;;;;7.41;67.43;98860.27;129709;1256;128513;-64
2024/02/08 13:37:03;;;;;;;8.20;4.60;;;;;;;7.34;67.81;98852.16;129801;1278;114749;-64
2024/02/08 13:40:07;;;;;;;9.80;3.40;;;;;;;7.32;67.86;98842.52;129805;1259;115166;-62
2024/02/08 13:43:13;;;;;;;11.30;5.70;;;;;;;7.26;67.88;98842.50;129836;1259;115375;-63
2024/02/08 13:46:16;;;;;;;7.90;3.80;;;;;;;7.24;67.79;98841.56;129770;1259;115989;-64
2024/02/08 13:49:21;;;;;;;6.00;4.20;;;;;;;7.23;67.70;98840.55;129914;1257;114859;-65
2024/02/08 13:52:27;;;;;;;7.40;2.90;;;;;;;7.17;67.69;98834.50;129669;1267;114795;-64
2024/02/08 13:55:32;;;;;;;6.20;3.50;;;;;;;7.10;67.60;98837.21;129917;1259;114707;-64
2024/02/08 13:58:36;;;;;;;14.00;8.20;;;;;;;7.09;68.32;98836.06;129739;1256;114711;-63
2024/02/08 14:01:39;;;;;;;20.80;11.20;;;;;;;7.07;67.95;98832.09;129789;1259;114709;-64
2024/02/08 14:04:51;;;;;;;9.00;4.00;;;;;;;7.05;67.82;98831.52;129909;1256;115319;-63
2024/02/08 14:07:54;;;;;;;10.30;5.10;;;;;;;6.97;67.90;98830.66;129676;1273;114786;-63
2024/02/08 14:10:58;;;;;;;6.50;3.00;;;;;;;6.94;67.84;98832.45;129806;1259;114712;-63
2024/02/08 14:14:03;;;;;;;12.40;3.90;;;;;;;6.78;67.24;98838.01;129709;1278;114940;-63
2024/02/08 14:17:10;;;;;;;8.70;4.40;;;;;;;6.70;67.83;98843.77;129650;1259;116429;-62
2024/02/08 14:20:31;;;;;;;8.10;3.50;;;;;;;6.66;67.84;98837.25;129579;1278;128447;-62
2024/02/08 14:23:37;;;;;;;10.70;4.80;;;;;;;6.60;67.76;98831.10;129574;1278;114782;-61
2024/02/08 14:26:43;;;;;;;7.90;3.90;;;;;;;6.50;67.59;98829.84;129860;1254;114721;-63
2024/02/08 14:29:50;;;;;;;12.10;4.50;;;;;;;6.33;67.78;98824.02;129854;1257;115202;-61
2024/02/08 14:32:55;;;;;;;11.10;5.00;;;;;;;6.22;68.05;98815.64;129729;1270;114799;-62
2024/02/08 14:35:57;;;;;;;6.90;4.20;;;;;;;6.18;68.44;98812.12;129711;1260;128204;-61
2024/02/08 14:39:00;;;;;;;11.10;5.10;;;;;;;6.12;68.48;98810.13;129737;1262;114748;-65
2024/02/08 14:42:17;;;;;;;14.50;4.90;;;;;;;6.07;68.34;98816.23;129823;1257;114744;-62
2024/02/08 14:45:24;;;;;;;14.10;6.40;;;;;;;6.00;68.83;98818.58;129781;1265;114734;-64
2024/02/08 14:48:37;;;;;;;9.90;4.10;;;;;;;6.00;69.11;98817.71;129669;1259;115157;-61
2024/02/08 14:51:40;;;;;;;8.80;4.30;;;;;;;5.97;68.99;98804.55;129866;1259;128927;-62
2024/02/08 14:54:42;;;;;;;10.50;5.10;;;;;;;5.92;68.94;98797.21;129901;1260;114638;-63
2024/02/08 14:57:45;;;;;;;10.60;4.60;;;;;;;5.88;69.14;98804.49;129846;1272;114709;-61
2024/02/08 15:00:57;;;;;;;10.40;4.00;;;;;;;5.83;69.01;98819.86;129939;1260;114643;-62
2024/02/08 15:04:02;;;;;;;11.10;5.40;;;;;;;5.74;68.99;98819.59;129875;1269;114726;-62
2024/02/08 15:10:10;;;;;;;10.00;4.90;;;;;;;5.62;69.28;98798.08;129869;1258;115016;-63
2024/02/08 15:13:19;;;;;;;7.30;4.10;;;;;;;5.60;69.55;98795.16;129730;1278;114803;-61
2024/02/08 15:16:21;;;;;;;10.50;4.70;;;;;;;5.57;69.44;98785.09;129621;1264;114886;-61
2024/02/08 15:19:27;;;;;;;13.00;5.20;;;;;;;5.53;69.75;98783.55;129905;1260;114731;-61
2024/02/08 15:25:34;;;;;;;10.50;5.40;;;;;;;5.45;69.71;98792.45;129926;1259;115087;-61
2024/02/08 15:28:45;;;;;;;11.70;4.20;;;;;;;5.38;69.84;98800.28;129887;1278;114836;-61
2024/02/08 15:31:56;;;;;;;13.50;6.00;;;;;;;5.32;69.74;98807.79;129933;1262;114773;-62
2024/02/08 15:35:04;;;;;;;10.50;4.30;;;;;;;5.27;69.95;98810.02;129811;1269;114737;-61
2024/02/08 15:38:19;;;;;;;7.60;4.00;;;;;;;5.23;70.27;98808.83;129888;1259;127190;-61
2024/02/08 15:41:28;;;;;;;9.60;5.00;;;;;;;5.17;70.27;98807.86;129979;1278;114829;-63
2024/02/08 15:44:33;;;;;;;10.40;5.00;;;;;;;5.13;70.58;98798.71;129971;1278;114742;-62
2024/02/08 15:48:05;;;;;;;11.30;6.30;;;;;;;5.10;70.46;98798.88;129808;1259;114875;-63
2024/02/08 15:51:10;;;;;;;10.00;5.70;;;;;;;5.07;70.72;98796.55;129715;1278;115437;-62
2024/02/08 15:54:21;;;;;;;11.70;5.10;;;;;;;5.04;70.68;98795.08;129885;1259;129609;-61
2024/02/08 15:57:45;;;;;;;10.70;6.10;;;;;;;5.00;70.86;98792.80;129739;1278;114830;-62
2024/02/08 16:04:37;;;;;;;10.60;5.00;;;;;;;4.96;71.14;98781.52;129960;1256;114814;-61
2024/02/08 16:07:32;;;;;;;10.90;5.80;;;;;;;4.92;71.07;98776.42;129539;1278;114915;-63
2024/02/08 16:10:35;;;;;;;8.80;5.50;;;;;;;4.88;71.08;98770.08;129728;1257;114824;-61
2024/02/08 16:13:46;;;;;;;9.90;6.40;;;;;;;4.83;71.24;98757.58;129711;1259;115318;-64
2024/02/08 16:17:05;;;;;;;12.40;6.40;;;;;;;4.78;71.45;98749.88;129794;1257;115393;-63
2024/02/08 16:23:20;;;;;;;14.60;9.30;;;;;;;4.72;71.75;98747.67;129939;1278;114767;-61